Leigh, Texas
Current Conditions -  °F | °C
As of 5:55 PM on Thursday 27 Nov 2014 (Local Time) from KASL Reporting Station
Clear Clear  
Wind Chill: 48°   Ceiling: Unl
Heat Index: 48°   Visibility: 10mi
Dew Point: 39°   Wind: 0mph
Humidity: 71%   Direction: NA
Pressure: 30.46"   Gusts: NA
Location:  32.6187°N, 94.1782°W
Report Text: KASL 272355Z AUTO 00000KT 10SM CLR 09/04 A3046 RMK AO1 T00880039 10146 20088
Loading
Personal Weather Stations






























Interactive Weather Map New forecast layout! Learn more

10-Day Weather Forecast

Advertisements
Track Severe Weather on mobile